Time;durP1;ratioP1;P1;durP2;ratioP2;P2;SDS_P1;SDS_P2;PMS_P1;PMS_P2;Temp;Humidity;BMP_temperature;BMP_pressure;BME280_temperature;BME280_humidity;BME280_pressure;Samples;Min_cycle;Max_cycle;Signal;HPM_P1;HPM_P2
2022/01/07 00:02:15;;;;;;;24.87;12.60;;;;;;;;;;5075071;28;20543;-69
2022/01/07 00:04:43;;;;;;;21.47;14.03;;;;;;;;;;5074964;28;21010;-70
2022/01/07 00:07:10;;;;;;;28.77;13.40;;;;;;;;;;5074990;28;20436;-70
2022/01/07 00:09:37;;;;;;;22.70;12.57;;;;;;;;;;5074748;28;20447;-70
2022/01/07 00:12:06;;;;;;;17.47;11.50;;;;;;;;;;5074974;28;20474;-70
2022/01/07 00:14:34;;;;;;;17.47;9.30;;;;;;;;;;5074504;28;20451;-70
2022/01/07 00:17:01;;;;;;;17.27;8.87;;;;;;;;;;5074719;28;20447;-70
2022/01/07 00:19:28;;;;;;;16.20;9.63;;;;;;;;;;5074574;28;20553;-70
2022/01/07 00:21:55;;;;;;;13.23;7.37;;;;;;;;;;5074615;28;20508;-70
2022/01/07 00:24:23;;;;;;;17.30;9.27;;;;;;;;;;5074437;28;20455;-70
2022/01/07 00:26:50;;;;;;;16.50;8.00;;;;;;;;;;5074616;28;20473;-70
2022/01/07 00:29:18;;;;;;;11.07;7.00;;;;;;;;;;5074286;28;20466;-70
2022/01/07 00:31:45;;;;;;;13.27;6.97;;;;;;;;;;5074362;28;20855;-70
2022/01/07 00:34:13;;;;;;;17.63;8.47;;;;;;;;;;5074240;28;20487;-70
2022/01/07 00:36:40;;;;;;;10.53;8.10;;;;;;;;;;5073816;28;20919;-70
2022/01/07 00:39:07;;;;;;;13.67;8.37;;;;;;;;;;5074317;28;20999;-69
2022/01/07 00:41:34;;;;;;;18.20;9.43;;;;;;;;;;5074342;28;20508;-71
2022/01/07 00:44:03;;;;;;;21.33;8.97;;;;;;;;;;5073878;28;20447;-70
2022/01/07 00:46:32;;;;;;;14.30;7.43;;;;;;;;;;5074183;28;20471;-70
2022/01/07 00:48:59;;;;;;;11.23;8.03;;;;;;;;;;5074122;28;20451;-70
2022/01/07 00:51:26;;;;;;;12.87;8.43;;;;;;;;;;5074017;28;20901;-70
2022/01/07 00:53:53;;;;;;;17.17;7.10;;;;;;;;;;5073790;28;20447;-69
2022/01/07 00:56:21;;;;;;;11.53;7.97;;;;;;;;;;5073944;28;20531;-69
2022/01/07 00:58:48;;;;;;;15.00;8.10;;;;;;;;;;5073809;28;20487;-69
2022/01/07 01:01:15;;;;;;;21.03;10.43;;;;;;;;;;5073980;28;20473;-69
2022/01/07 01:03:43;;;;;;;15.70;8.60;;;;;;;;;;5073306;28;20451;-70
2022/01/07 01:06:11;;;;;;;20.30;9.00;;;;;;;;;;5073659;28;20506;-70
2022/01/07 01:08:38;;;;;;;19.60;11.17;;;;;;;;;;5073622;28;20547;-69
2022/01/07 01:11:05;;;;;;;18.30;8.47;;;;;;;;;;5073838;28;20476;-69
2022/01/07 01:13:32;;;;;;;11.03;6.73;;;;;;;;;;5073515;28;20820;-70
2022/01/07 01:16:00;;;;;;;16.17;8.20;;;;;;;;;;5073642;28;20903;-70
2022/01/07 01:18:27;;;;;;;8.30;7.10;;;;;;;;;;5073603;28;20542;-70
2022/01/07 01:20:56;;;;;;;16.67;7.50;;;;;;;;;;5073641;28;20487;-70
2022/01/07 01:23:23;;;;;;;14.90;8.10;;;;;;;;;;5073484;28;20447;-69
2022/01/07 01:25:51;;;;;;;12.40;7.90;;;;;;;;;;5073239;28;20468;-69
2022/01/07 01:28:18;;;;;;;9.10;6.00;;;;;;;;;;5073509;28;20478;-69
2022/01/07 01:30:46;;;;;;;9.30;6.37;;;;;;;;;;5073539;28;20865;-69
2022/01/07 01:33:13;;;;;;;8.97;6.53;;;;;;;;;;5073322;28;20539;-69
2022/01/07 01:35:40;;;;;;;9.30;6.63;;;;;;;;;;5073064;28;20471;-69
2022/01/07 01:38:10;;;;;;;12.07;7.13;;;;;;;;;;5072709;28;20453;-70
2022/01/07 01:40:37;;;;;;;12.60;6.50;;;;;;;;;;5073141;28;20928;-70
2022/01/07 01:43:04;;;;;;;10.37;7.80;;;;;;;;;;5073267;28;20493;-70
2022/01/07 01:45:32;;;;;;;10.63;7.50;;;;;;;;;;5072820;28;20477;-70
2022/01/07 01:47:59;;;;;;;14.70;7.50;;;;;;;;;;5073258;28;20448;-70
2022/01/07 01:50:26;;;;;;;7.13;5.27;;;;;;;;;;5073163;28;20446;-70
2022/01/07 01:52:56;;;;;;;11.13;6.70;;;;;;;;;;5073187;28;20443;-70
2022/01/07 01:55:25;;;;;;;9.13;6.27;;;;;;;;;;5072844;28;20503;-70
2022/01/07 01:57:53;;;;;;;10.03;6.57;;;;;;;;;;5072957;28;20452;-70
2022/01/07 02:00:20;;;;;;;9.80;6.20;;;;;;;;;;5073161;28;21039;-70
2022/01/07 02:02:48;;;;;;;13.40;5.40;;;;;;;;;;5073068;28;20454;-70
2022/01/07 02:05:15;;;;;;;11.47;6.20;;;;;;;;;;5072744;28;20519;-70
2022/01/07 02:07:43;;;;;;;19.03;7.13;;;;;;;;;;5072906;28;20483;-70
2022/01/07 02:10:11;;;;;;;9.47;6.20;;;;;;;;;;5072909;28;20451;-70
2022/01/07 02:12:40;;;;;;;10.67;6.43;;;;;;;;;;5072723;28;20895;-70
2022/01/07 02:15:08;;;;;;;11.40;6.07;;;;;;;;;;5074607;28;20975;-70
2022/01/07 02:17:35;;;;;;;9.80;5.93;;;;;;;;;;5076918;28;20454;-70
2022/01/07 02:20:04;;;;;;;13.40;5.57;;;;;;;;;;5077227;28;20841;-70
2022/01/07 02:22:31;;;;;;;9.00;5.33;;;;;;;;;;5076860;28;20963;-70
2022/01/07 02:24:59;;;;;;;6.97;5.67;;;;;;;;;;5076644;28;20494;-70
2022/01/07 02:27:26;;;;;;;10.07;6.70;;;;;;;;;;5076984;28;20983;-70
2022/01/07 02:29:54;;;;;;;11.23;6.10;;;;;;;;;;5076730;28;20459;-70
2022/01/07 02:32:22;;;;;;;8.77;5.33;;;;;;;;;;5077025;28;20939;-70
2022/01/07 02:34:49;;;;;;;10.47;6.80;;;;;;;;;;5076501;28;20562;-70
2022/01/07 02:37:18;;;;;;;9.20;5.87;;;;;;;;;;5076286;28;20459;-70
2022/01/07 02:39:46;;;;;;;7.00;4.90;;;;;;;;;;5076486;28;20490;-70
2022/01/07 02:42:13;;;;;;;7.83;5.67;;;;;;;;;;5076549;28;20451;-70
2022/01/07 02:44:40;;;;;;;7.20;5.70;;;;;;;;;;5076237;28;20456;-70
2022/01/07 02:47:08;;;;;;;9.50;6.40;;;;;;;;;;5076509;28;20440;-70
2022/01/07 02:49:35;;;;;;;9.70;6.30;;;;;;;;;;5076466;28;20450;-70
2022/01/07 02:52:02;;;;;;;11.07;6.33;;;;;;;;;;5076400;28;20466;-70
2022/01/07 02:54:31;;;;;;;8.13;5.60;;;;;;;;;;5076088;28;20534;-70
2022/01/07 02:56:58;;;;;;;12.23;5.90;;;;;;;;;;5076566;28;20530;-70
2022/01/07 02:59:26;;;;;;;8.47;4.83;;;;;;;;;;5076077;28;20807;-70
2022/01/07 03:01:53;;;;;;;7.50;5.10;;;;;;;;;;5076124;28;20521;-70
2022/01/07 03:04:23;;;;;;;6.57;4.40;;;;;;;;;;5075964;28;20451;-70
2022/01/07 03:06:50;;;;;;;9.80;5.90;;;;;;;;;;5075954;28;20944;-70
2022/01/07 03:09:17;;;;;;;5.40;4.53;;;;;;;;;;5076061;28;20455;-70
2022/01/07 03:11:46;;;;;;;7.80;5.70;;;;;;;;;;5075957;28;20458;-70
2022/01/07 03:14:13;;;;;;;9.63;5.03;;;;;;;;;;5075749;28;20459;-70
2022/01/07 03:16:40;;;;;;;8.67;5.50;;;;;;;;;;5075932;28;20510;-70
2022/01/07 03:19:07;;;;;;;14.43;7.63;;;;;;;;;;5075892;28;20444;-70
2022/01/07 03:21:35;;;;;;;11.17;5.83;;;;;;;;;;5075694;28;20493;-70
2022/01/07 03:24:02;;;;;;;12.13;6.30;;;;;;;;;;5075320;28;20456;-70
2022/01/07 03:26:29;;;;;;;10.23;6.20;;;;;;;;;;5075521;28;20533;-70
2022/01/07 03:28:58;;;;;;;13.33;6.63;;;;;;;;;;5075680;28;21041;-70
2022/01/07 03:31:25;;;;;;;14.53;7.30;;;;;;;;;;5075654;28;20443;-70
2022/01/07 03:33:52;;;;;;;8.80;6.70;;;;;;;;;;5075280;28;20553;-70
2022/01/07 03:36:21;;;;;;;13.00;6.13;;;;;;;;;;5075587;28;20533;-70
2022/01/07 03:38:48;;;;;;;13.57;6.40;;;;;;;;;;5074831;28;20452;-70
2022/01/07 03:41:15;;;;;;;11.03;6.83;;;;;;;;;;5075655;28;20523;-70
2022/01/07 03:43:42;;;;;;;8.27;5.70;;;;;;;;;;5075119;28;20486;-70
2022/01/07 03:46:11;;;;;;;9.27;5.70;;;;;;;;;;5075215;28;20546;-70
2022/01/07 03:48:38;;;;;;;11.43;6.60;;;;;;;;;;5075250;28;20872;-70
2022/01/07 03:51:05;;;;;;;9.60;5.87;;;;;;;;;;5075475;28;20448;-70
2022/01/07 03:53:33;;;;;;;7.97;6.20;;;;;;;;;;5075086;28;20557;-70
2022/01/07 03:56:00;;;;;;;12.33;6.47;;;;;;;;;;5075345;28;20877;-70
2022/01/07 03:58:27;;;;;;;8.80;6.23;;;;;;;;;;5075259;28;20539;-70
2022/01/07 04:00:54;;;;;;;6.93;5.43;;;;;;;;;;5075041;28;20579;-70
2022/01/07 04:03:23;;;;;;;10.23;5.60;;;;;;;;;;5075189;28;21004;-70
2022/01/07 04:05:50;;;;;;;8.77;6.30;;;;;;;;;;5074757;28;20471;-70
2022/01/07 04:08:17;;;;;;;8.90;7.03;;;;;;;;;;5075005;28;20469;-70
2022/01/07 04:10:44;;;;;;;12.97;5.40;;;;;;;;;;5074954;28;20456;-69
2022/01/07 04:13:12;;;;;;;7.50;6.63;;;;;;;;;;5074781;28;20448;-69
2022/01/07 04:15:39;;;;;;;10.33;5.97;;;;;;;;;;5074546;28;20489;-70
2022/01/07 04:18:06;;;;;;;8.20;5.37;;;;;;;;;;5074780;28;20477;-70
2022/01/07 04:20:36;;;;;;;16.83;6.17;;;;;;;;;;5074426;28;20491;-70
2022/01/07 04:23:04;;;;;;;8.90;5.53;;;;;;;;;;5074380;28;20534;-70
2022/01/07 04:25:31;;;;;;;8.33;5.60;;;;;;;;;;5074306;28;20879;-70
2022/01/07 04:27:59;;;;;;;12.40;5.07;;;;;;;;;;5074723;28;20447;-70
2022/01/07 04:30:30;;;;;;;9.63;5.83;;;;;;;;;;5074310;28;20957;-70
2022/01/07 04:32:57;;;;;;;9.70;5.20;;;;;;;;;;5074547;28;20997;-70
2022/01/07 04:35:25;;;;;;;8.70;5.53;;;;;;;;;;5074152;28;20512;-70
2022/01/07 04:37:55;;;;;;;10.00;5.77;;;;;;;;;;5073140;28;20451;-70
2022/01/07 04:40:22;;;;;;;13.07;6.43;;;;;;;;;;5074347;28;20510;-70
2022/01/07 04:42:50;;;;;;;7.57;5.53;;;;;;;;;;5074229;28;20474;-70
2022/01/07 04:45:17;;;;;;;12.43;5.70;;;;;;;;;;5073945;28;20520;-70
2022/01/07 04:47:45;;;;;;;8.70;5.13;;;;;;;;;;5074251;28;21008;-70
2022/01/07 04:50:14;;;;;;;7.80;5.80;;;;;;;;;;5074222;28;20821;-70
2022/01/07 04:52:44;;;;;;;17.10;5.80;;;;;;;;;;5074022;28;20543;-70
2022/01/07 04:55:13;;;;;;;10.67;6.53;;;;;;;;;;5073935;28;20484;-70
2022/01/07 04:57:40;;;;;;;10.63;6.97;;;;;;;;;;5074001;28;20452;-70
2022/01/07 05:00:08;;;;;;;13.17;7.27;;;;;;;;;;5073820;28;20542;-70
2022/01/07 05:02:35;;;;;;;13.00;8.10;;;;;;;;;;5073910;28;20456;-70
2022/01/07 05:05:02;;;;;;;10.40;7.80;;;;;;;;;;5073514;28;20521;-70
2022/01/07 05:07:29;;;;;;;12.20;8.00;;;;;;;;;;5073705;28;20531;-70
2022/01/07 05:09:57;;;;;;;14.37;7.70;;;;;;;;;;5073738;28;20459;-70
2022/01/07 05:12:25;;;;;;;7.93;5.07;;;;;;;;;;5073658;28;20530;-70
2022/01/07 05:14:52;;;;;;;10.90;6.20;;;;;;;;;;5073599;28;20471;-70
2022/01/07 05:17:20;;;;;;;15.20;6.70;;;;;;;;;;5073790;28;20507;-70
2022/01/07 05:19:47;;;;;;;8.90;5.67;;;;;;;;;;5073496;28;20444;-70
2022/01/07 05:22:14;;;;;;;9.43;6.73;;;;;;;;;;5073337;28;20494;-70
2022/01/07 05:24:41;;;;;;;9.83;5.80;;;;;;;;;;5073109;28;20538;-70
2022/01/07 05:27:09;;;;;;;10.60;5.67;;;;;;;;;;5073513;28;20456;-70
2022/01/07 05:29:37;;;;;;;10.37;6.93;;;;;;;;;;5073305;28;20502;-70
2022/01/07 05:32:05;;;;;;;9.80;5.77;;;;;;;;;;5073413;28;20481;-70
2022/01/07 05:34:33;;;;;;;13.60;6.43;;;;;;;;;;5072912;28;20802;-70
2022/01/07 05:37:00;;;;;;;11.90;7.87;;;;;;;;;;5072867;28;20554;-70
2022/01/07 05:39:28;;;;;;;9.97;6.40;;;;;;;;;;5073223;28;20498;-70
2022/01/07 05:41:57;;;;;;;9.17;6.13;;;;;;;;;;5073206;28;20483;-70
2022/01/07 05:44:25;;;;;;;14.27;7.83;;;;;;;;;;5072900;28;20448;-70
2022/01/07 05:46:53;;;;;;;13.80;6.93;;;;;;;;;;5073294;28;20460;-70
2022/01/07 05:49:21;;;;;;;11.10;7.00;;;;;;;;;;5072315;28;20495;-70
2022/01/07 05:51:48;;;;;;;7.90;5.90;;;;;;;;;;5073028;28;20459;-70
2022/01/07 05:54:15;;;;;;;13.67;8.17;;;;;;;;;;5072987;28;20542;-70
2022/01/07 05:56:42;;;;;;;29.73;8.63;;;;;;;;;;5073089;28;20468;-70
2022/01/07 05:59:09;;;;;;;12.50;7.50;;;;;;;;;;5073329;28;20614;-70
2022/01/07 06:01:37;;;;;;;39.90;9.57;;;;;;;;;;5072954;28;20479;-70
2022/01/07 06:04:05;;;;;;;16.77;7.30;;;;;;;;;;5072966;28;20451;-70
2022/01/07 06:06:33;;;;;;;18.77;7.83;;;;;;;;;;5072927;28;20482;-70
2022/01/07 06:09:00;;;;;;;85.43;11.20;;;;;;;;;;5072971;28;20960;-70
2022/01/07 06:11:27;;;;;;;98.13;13.07;;;;;;;;;;5072909;28;20450;-70
2022/01/07 06:13:54;;;;;;;65.90;12.60;;;;;;;;;;5073017;28;20985;-70
2022/01/07 06:16:22;;;;;;;70.93;13.37;;;;;;;;;;5072778;28;20552;-70
2022/01/07 06:18:53;;;;;;;38.97;10.07;;;;;;;;;;5072947;28;20462;-70
2022/01/07 06:21:21;;;;;;;12.37;7.70;;;;;;;;;;5072772;28;20487;-70
2022/01/07 06:23:49;;;;;;;15.77;8.60;;;;;;;;;;5072615;28;20814;-70
2022/01/07 06:26:16;;;;;;;14.90;7.83;;;;;;;;;;5072695;28;20504;-70
2022/01/07 06:28:43;;;;;;;16.33;8.80;;;;;;;;;;5072599;28;20470;-70
2022/01/07 06:31:10;;;;;;;15.40;8.73;;;;;;;;;;5072682;28;20454;-70
2022/01/07 06:33:38;;;;;;;14.90;8.77;;;;;;;;;;5072690;28;20480;-70
2022/01/07 06:36:05;;;;;;;36.10;10.27;;;;;;;;;;5072694;28;20912;-70
2022/01/07 06:38:34;;;;;;;32.33;11.50;;;;;;;;;;5072310;28;20509;-70
2022/01/07 06:41:01;;;;;;;34.23;11.50;;;;;;;;;;5072897;28;20484;-70
2022/01/07 06:43:28;;;;;;;26.83;10.80;;;;;;;;;;5072498;28;20534;-70
2022/01/07 06:45:56;;;;;;;22.20;11.27;;;;;;;;;;5072655;28;20921;-70
2022/01/07 06:48:23;;;;;;;25.37;10.37;;;;;;;;;;5072522;28;20550;-70
2022/01/07 06:50:50;;;;;;;77.17;30.43;;;;;;;;;;5072649;28;20447;-70
2022/01/07 06:53:18;;;;;;;18.13;11.93;;;;;;;;;;5072229;28;20507;-70
2022/01/07 06:55:46;;;;;;;18.73;9.10;;;;;;;;;;5072118;28;20475;-70
2022/01/07 06:58:13;;;;;;;19.57;10.20;;;;;;;;;;5072481;28;20455;-70
2022/01/07 07:00:40;;;;;;;23.47;9.97;;;;;;;;;;5073544;28;20466;-70
2022/01/07 07:03:08;;;;;;;44.60;12.33;;;;;;;;;;5076160;28;20535;-70
2022/01/07 07:05:35;;;;;;;19.47;9.10;;;;;;;;;;5075858;28;20542;-70
2022/01/07 07:08:03;;;;;;;31.17;10.67;;;;;;;;;;5075985;28;20537;-70
2022/01/07 07:10:31;;;;;;;30.13;10.37;;;;;;;;;;5075860;28;20556;-70
2022/01/07 07:13:00;;;;;;;19.03;8.77;;;;;;;;;;5075987;28;20455;-70
2022/01/07 07:15:27;;;;;;;22.03;9.90;;;;;;;;;;5075603;28;20483;-70
2022/01/07 07:17:54;;;;;;;55.77;10.73;;;;;;;;;;5075982;28;20878;-70
2022/01/07 07:20:21;;;;;;;16.63;8.57;;;;;;;;;;5075892;28;20451;-72
2022/01/07 07:22:48;;;;;;;20.87;9.50;;;;;;;;;;5075801;28;20487;-70
2022/01/07 07:25:16;;;;;;;27.27;10.97;;;;;;;;;;5075439;28;20471;-70
2022/01/07 07:27:44;;;;;;;20.93;11.20;;;;;;;;;;5075557;28;20462;-70
2022/01/07 07:30:13;;;;;;;20.13;11.13;;;;;;;;;;5075493;28;20533;-70
2022/01/07 07:32:40;;;;;;;26.87;11.57;;;;;;;;;;5075636;28;20483;-70
2022/01/07 07:37:55;;;;;;;22.67;10.80;;;;;;;;;;5074703;28;20830;-70
2022/01/07 07:40:22;;;;;;;14.97;10.90;;;;;;;;;;5075536;28;20902;-70
2022/01/07 07:42:49;;;;;;;18.50;12.10;;;;;;;;;;5064487;28;20492;-70
2022/01/07 07:45:18;;;;;;;27.53;12.20;;;;;;;;;;5073698;28;20475;-70
2022/01/07 07:47:45;;;;;;;29.60;13.70;;;;;;;;;;5073798;28;20447;-70
2022/01/07 07:50:12;;;;;;;30.87;15.80;;;;;;;;;;5073715;28;20455;-70
2022/01/07 07:52:40;;;;;;;34.90;17.00;;;;;;;;;;5073863;28;20449;-70
2022/01/07 07:55:07;;;;;;;30.60;16.83;;;;;;;;;;5073720;28;20552;-70
2022/01/07 07:57:34;;;;;;;29.27;16.70;;;;;;;;;;5073429;28;20477;-70
2022/01/07 08:00:03;;;;;;;86.43;46.73;;;;;;;;;;5073916;28;20455;-70
2022/01/07 08:02:31;;;;;;;32.10;19.17;;;;;;;;;;5073681;28;20492;-70
2022/01/07 08:04:58;;;;;;;63.40;30.27;;;;;;;;;;5073303;28;20472;-70
2022/01/07 08:07:26;;;;;;;21.70;10.73;;;;;;;;;;5073552;28;20501;-70
2022/01/07 08:09:54;;;;;;;47.43;15.40;;;;;;;;;;5073490;28;20492;-70
2022/01/07 08:12:26;;;;;;;33.33;17.10;;;;;;;;;;5072437;28;20448;-70
2022/01/07 08:17:40;;;;;;;26.23;10.53;;;;;;;;;;5073346;28;20466;-70
2022/01/07 08:20:08;;;;;;;15.10;8.93;;;;;;;;;;5073321;28;20459;-71
2022/01/07 08:22:35;;;;;;;13.07;8.43;;;;;;;;;;5072980;28;20496;-71
2022/01/07 08:25:04;;;;;;;20.00;14.37;;;;;;;;;;5073050;28;20479;-71
2022/01/07 08:27:31;;;;;;;10.50;7.00;;;;;;;;;;5072844;28;20546;-71
2022/01/07 08:30:02;;;;;;;7.70;6.17;;;;;;;;;;5073248;28;20834;-71
2022/01/07 08:35:15;;;;;;;10.43;6.13;;;;;;;;;;5072844;28;20521;-71
2022/01/07 08:37:43;;;;;;;6.20;5.43;;;;;;;;;;5072415;28;20533;-71
2022/01/07 08:40:11;;;;;;;8.80;6.73;;;;;;;;;;5073436;28;20484;-71
2022/01/07 08:42:38;;;;;;;8.07;6.47;;;;;;;;;;5072621;28;20495;-71
2022/01/07 08:45:06;;;;;;;6.37;5.70;;;;;;;;;;5072878;28;20564;-71
2022/01/07 08:47:33;;;;;;;8.87;5.90;;;;;;;;;;5072794;28;20480;-71
2022/01/07 08:50:00;;;;;;;7.10;5.13;;;;;;;;;;5072808;28;20531;-70
2022/01/07 08:52:29;;;;;;;9.87;5.47;;;;;;;;;;5072805;28;20523;-70
2022/01/07 08:54:56;;;;;;;6.53;5.47;;;;;;;;;;5072408;28;20543;-70
2022/01/07 08:57:24;;;;;;;7.50;5.60;;;;;;;;;;5072533;28;20620;-70
2022/01/07 08:59:52;;;;;;;5.17;4.63;;;;;;;;;;5072719;28;20901;-70
2022/01/07 09:02:19;;;;;;;8.30;6.30;;;;;;;;;;5072460;28;20479;-70
2022/01/07 09:04:47;;;;;;;8.67;6.20;;;;;;;;;;5071929;28;20471;-71
2022/01/07 09:07:14;;;;;;;8.60;5.40;;;;;;;;;;5072573;28;20456;-71
2022/01/07 09:09:42;;;;;;;6.30;5.47;;;;;;;;;;5072301;28;20469;-71
2022/01/07 09:12:10;;;;;;;10.67;6.60;;;;;;;;;;5072121;28;20479;-71
2022/01/07 09:14:38;;;;;;;18.10;11.90;;;;;;;;;;5071963;28;20452;-71
2022/01/07 09:17:05;;;;;;;9.73;7.10;;;;;;;;;;5072351;28;20487;-71
2022/01/07 09:19:33;;;;;;;11.13;7.10;;;;;;;;;;5071714;28;20456;-71
2022/01/07 09:22:00;;;;;;;8.17;5.57;;;;;;;;;;5072945;28;20498;-71
2022/01/07 09:24:29;;;;;;;9.10;6.80;;;;;;;;;;5072682;28;20809;-71
2022/01/07 09:26:58;;;;;;;8.83;5.60;;;;;;;;;;5073555;28;20448;-71
2022/01/07 09:29:27;;;;;;;9.13;6.03;;;;;;;;;;5073355;28;20470;-71
2022/01/07 09:31:54;;;;;;;9.37;6.60;;;;;;;;;;5073519;28;20492;-71
2022/01/07 09:34:22;;;;;;;29.97;10.37;;;;;;;;;;5073069;28;20463;-71
2022/01/07 09:36:49;;;;;;;8.47;5.23;;;;;;;;;;5073225;28;20826;-71
2022/01/07 09:39:16;;;;;;;14.00;5.40;;;;;;;;;;5073338;28;20795;-70
2022/01/07 09:41:43;;;;;;;5.70;3.90;;;;;;;;;;5073109;28;20487;-70
2022/01/07 09:44:12;;;;;;;4.60;3.37;;;;;;;;;;5073364;28;20456;-70
2022/01/07 09:46:41;;;;;;;4.80;3.37;;;;;;;;;;5072885;28;20555;-70
2022/01/07 09:49:08;;;;;;;6.50;3.67;;;;;;;;;;5073273;28;20827;-70
2022/01/07 09:51:38;;;;;;;7.07;4.70;;;;;;;;;;5073280;28;20792;-70
2022/01/07 09:54:05;;;;;;;4.43;3.37;;;;;;;;;;5073242;28;20461;-71
2022/01/07 09:56:32;;;;;;;6.57;4.33;;;;;;;;;;5072910;28;20550;-70
2022/01/07 09:59:00;;;;;;;5.67;3.93;;;;;;;;;;5073119;28;20952;-71
2022/01/07 10:01:28;;;;;;;4.83;4.03;;;;;;;;;;5072861;28;20494;-70
2022/01/07 10:03:56;;;;;;;7.33;4.83;;;;;;;;;;5072782;28;20462;-70
2022/01/07 10:06:24;;;;;;;4.83;3.90;;;;;;;;;;5073023;28;20842;-71
2022/01/07 10:09:00;;;;;;;4.73;3.30;;;;;;;;;;5072984;28;20463;-70
2022/01/07 10:11:28;;;;;;;8.00;4.50;;;;;;;;;;5060665;28;20480;-70
2022/01/07 10:14:10;;;;;;;6.30;3.53;;;;;;;;;;5056344;28;20833;-70
2022/01/07 10:16:47;;;;;;;5.20;3.63;;;;;;;;;;5061120;28;20484;-70
2022/01/07 10:19:28;;;;;;;4.33;3.40;;;;;;;;;;5059467;28;20476;-70
2022/01/07 10:21:56;;;;;;;4.90;3.70;;;;;;;;;;5062641;28;20483;-71
2022/01/07 10:24:23;;;;;;;5.00;4.00;;;;;;;;;;5064163;28;20530;-71
2022/01/07 10:27:05;;;;;;;4.60;3.97;;;;;;;;;;5064875;28;20991;-71
2022/01/07 10:29:33;;;;;;;3.40;3.10;;;;;;;;;;5055835;28;20483;-70
2022/01/07 10:32:19;;;;;;;5.20;3.67;;;;;;;;;;5060558;28;20456;-70
2022/01/07 10:35:01;;;;;;;3.83;3.20;;;;;;;;;;5056181;28;20496;-70
2022/01/07 10:37:29;;;;;;;3.37;3.00;;;;;;;;;;5063605;28;20467;-70
2022/01/07 10:39:56;;;;;;;3.80;2.43;;;;;;;;;;5075417;28;20456;-70
2022/01/07 10:42:23;;;;;;;2.67;2.43;;;;;;;;;;5058165;28;20492;-70
2022/01/07 10:44:59;;;;;;;4.60;2.70;;;;;;;;;;5068663;28;20495;-70
2022/01/07 10:47:28;;;;;;;3.03;2.70;;;;;;;;;;5066201;28;20471;-70
2022/01/07 10:50:10;;;;;;;5.20;2.23;;;;;;;;;;5069921;28;20540;-70
2022/01/07 10:52:37;;;;;;;3.57;2.83;;;;;;;;;;5062600;28;20466;-70
2022/01/07 10:55:11;;;;;;;3.23;2.13;;;;;;;;;;5062662;28;20510;-70
2022/01/07 10:57:39;;;;;;;6.00;4.40;;;;;;;;;;5057867;28;21022;-70
2022/01/07 11:00:07;;;;;;;3.60;2.77;;;;;;;;;;5063313;28;20950;-69
2022/01/07 11:02:36;;;;;;;3.90;2.43;;;;;;;;;;5060572;28;20570;-69
2022/01/07 11:05:04;;;;;;;4.23;3.10;;;;;;;;;;5061372;28;20484;-69
2022/01/07 11:07:31;;;;;;;4.37;3.10;;;;;;;;;;5058268;28;20559;-69
2022/01/07 11:09:59;;;;;;;7.77;3.10;;;;;;;;;;5055810;28;20826;-69
2022/01/07 11:12:27;;;;;;;5.27;3.27;;;;;;;;;;5068407;28;20452;-69
2022/01/07 11:14:54;;;;;;;4.20;3.37;;;;;;;;;;5071662;28;20486;-69
2022/01/07 11:17:22;;;;;;;4.20;2.77;;;;;;;;;;5065225;28;20452;-69
2022/01/07 11:19:55;;;;;;;9.43;6.27;;;;;;;;;;5059476;28;20462;-69
2022/01/07 11:22:22;;;;;;;6.47;4.33;;;;;;;;;;5060678;28;21016;-69
2022/01/07 11:24:53;;;;;;;5.10;3.13;;;;;;;;;;5062119;28;20563;-69
2022/01/07 11:27:21;;;;;;;5.20;3.63;;;;;;;;;;5070881;28;20517;-69
2022/01/07 11:29:53;;;;;;;4.97;3.83;;;;;;;;;;5057770;28;20488;-69
2022/01/07 11:32:28;;;;;;;5.53;3.30;;;;;;;;;;5064707;28;20468;-69
2022/01/07 11:34:57;;;;;;;4.93;3.03;;;;;;;;;;5060531;28;21000;-69
2022/01/07 11:37:43;;;;;;;2.93;2.27;;;;;;;;;;5059193;28;20848;-69
2022/01/07 11:40:10;;;;;;;3.50;2.73;;;;;;;;;;5068977;28;20451;-69
2022/01/07 11:42:40;;;;;;;5.13;3.57;;;;;;;;;;5063681;28;20500;-70
2022/01/07 11:45:29;;;;;;;4.00;2.80;;;;;;;;;;5058736;28;20480;-70
2022/01/07 11:47:57;;;;;;;4.77;3.13;;;;;;;;;;5056025;28;20557;-70
2022/01/07 11:50:25;;;;;;;4.80;2.60;;;;;;;;;;5070614;28;20802;-70
2022/01/07 11:52:57;;;;;;;4.43;3.07;;;;;;;;;;5066545;28;20482;-70
2022/01/07 11:55:26;;;;;;;5.50;3.83;;;;;;;;;;5065638;28;21023;-70
2022/01/07 11:57:54;;;;;;;3.90;3.03;;;;;;;;;;5062887;28;20463;-70
2022/01/07 12:00:40;;;;;;;3.80;2.80;;;;;;;;;;5068526;28;20463;-70
2022/01/07 12:03:07;;;;;;;4.23;2.90;;;;;;;;;;5056322;28;20507;-70
2022/01/07 12:05:35;;;;;;;4.63;2.90;;;;;;;;;;5056002;28;20512;-70
2022/01/07 12:08:02;;;;;;;6.50;3.50;;;;;;;;;;5061805;28;20457;-70
2022/01/07 12:10:29;;;;;;;4.93;2.57;;;;;;;;;;5064837;28;20482;-71
2022/01/07 12:13:00;;;;;;;4.60;3.10;;;;;;;;;;5062057;28;20454;-70
2022/01/07 12:15:28;;;;;;;7.10;3.60;;;;;;;;;;5068435;28;20497;-70
2022/01/07 12:17:55;;;;;;;2.93;2.60;;;;;;;;;;5065832;28;20471;-70
2022/01/07 12:20:31;;;;;;;4.07;3.20;;;;;;;;;;5061436;28;20473;-70
2022/01/07 12:23:00;;;;;;;6.07;4.93;;;;;;;;;;5065601;28;20867;-70
2022/01/07 12:25:27;;;;;;;3.90;2.87;;;;;;;;;;5061941;28;20480;-71
2022/01/07 12:28:01;;;;;;;4.30;2.60;;;;;;;;;;5064373;28;20811;-71
2022/01/07 12:30:28;;;;;;;4.43;2.93;;;;;;;;;;5055119;28;20889;-71
2022/01/07 12:33:00;;;;;;;4.00;3.30;;;;;;;;;;5065446;28;20455;-69
2022/01/07 12:35:30;;;;;;;4.70;3.20;;;;;;;;;;5063171;28;20479;-72
2022/01/07 12:37:57;;;;;;;5.63;4.30;;;;;;;;;;5059881;28;20530;-72
2022/01/07 12:40:26;;;;;;;4.17;2.70;;;;;;;;;;5068018;28;20479;-71
2022/01/07 12:42:53;;;;;;;5.37;3.53;;;;;;;;;;5063782;28;20502;-71
2022/01/07 12:45:22;;;;;;;6.57;3.77;;;;;;;;;;5059824;28;20479;-71
2022/01/07 12:47:50;;;;;;;4.90;2.63;;;;;;;;;;5065112;28;20941;-71
2022/01/07 12:50:17;;;;;;;4.67;3.60;;;;;;;;;;5068418;28;20478;-71
2022/01/07 12:52:45;;;;;;;4.87;2.93;;;;;;;;;;5065091;28;20468;-71
2022/01/07 12:55:15;;;;;;;3.63;2.80;;;;;;;;;;5064661;28;20542;-71
2022/01/07 12:57:46;;;;;;;4.00;3.60;;;;;;;;;;5058360;28;20483;-71
2022/01/07 13:00:18;;;;;;;3.80;3.23;;;;;;;;;;5063889;28;20460;-70
2022/01/07 13:02:46;;;;;;;5.10;3.43;;;;;;;;;;5055652;28;20485;-71
2022/01/07 13:05:18;;;;;;;5.43;3.43;;;;;;;;;;5067438;28;20482;-71
2022/01/07 13:07:45;;;;;;;4.77;3.50;;;;;;;;;;5060764;28;20468;-70
2022/01/07 13:10:15;;;;;;;4.23;2.70;;;;;;;;;;5064027;28;20456;-70
2022/01/07 13:12:52;;;;;;;10.30;6.40;;;;;;;;;;5073607;28;20464;-70
2022/01/07 13:15:33;;;;;;;8.17;3.63;;;;;;;;;;5073521;28;20482;-70
2022/01/07 13:18:14;;;;;;;8.27;2.97;;;;;;;;;;5074008;28;20456;-70
2022/01/07 13:20:41;;;;;;;6.87;3.73;;;;;;;;;;5073401;28;20459;-70
2022/01/07 13:23:08;;;;;;;4.93;3.40;;;;;;;;;;5072634;28;20999;-70
2022/01/07 13:25:36;;;;;;;4.20;3.20;;;;;;;;;;5073226;28;20810;-71
2022/01/07 13:28:05;;;;;;;5.47;4.90;;;;;;;;;;5073656;28;20443;-70
2022/01/07 13:30:36;;;;;;;5.13;3.60;;;;;;;;;;5073395;28;20960;-70
2022/01/07 13:33:06;;;;;;;7.60;4.00;;;;;;;;;;5073345;28;20452;-71
2022/01/07 13:35:35;;;;;;;6.33;3.70;;;;;;;;;;5073243;28;20477;-70
2022/01/07 13:38:02;;;;;;;5.43;3.60;;;;;;;;;;5073163;28;20443;-70
2022/01/07 13:40:32;;;;;;;6.33;4.27;;;;;;;;;;5073320;28;20941;-70
2022/01/07 13:43:08;;;;;;;6.03;3.07;;;;;;;;;;5073850;28;20888;-70
2022/01/07 13:45:35;;;;;;;5.97;3.80;;;;;;;;;;5073453;28;20471;-70
2022/01/07 13:48:07;;;;;;;7.30;4.37;;;;;;;;;;5073432;28;20815;-70
2022/01/07 13:50:35;;;;;;;8.00;3.80;;;;;;;;;;5073128;28;20534;-70
2022/01/07 13:53:10;;;;;;;10.43;4.70;;;;;;;;;;5073254;28;20444;-70
2022/01/07 13:55:39;;;;;;;7.33;4.10;;;;;;;;;;5072912;28;20475;-70
2022/01/07 13:58:07;;;;;;;6.90;4.03;;;;;;;;;;5073122;28;20568;-70
2022/01/07 14:00:35;;;;;;;8.93;4.23;;;;;;;;;;5073063;28;20463;-70
2022/01/07 14:03:03;;;;;;;6.77;3.87;;;;;;;;;;5073093;28;20574;-70
2022/01/07 14:05:30;;;;;;;7.10;4.03;;;;;;;;;;5072637;28;20564;-70
2022/01/07 14:07:57;;;;;;;4.50;3.10;;;;;;;;;;5073218;28;20809;-70
2022/01/07 14:10:25;;;;;;;3.97;3.40;;;;;;;;;;5072049;28;20448;-70
2022/01/07 14:12:54;;;;;;;5.03;3.13;;;;;;;;;;5073154;28;20573;-70
2022/01/07 14:15:25;;;;;;;8.53;3.30;;;;;;;;;;5072518;28;20471;-70
2022/01/07 14:17:52;;;;;;;7.30;3.20;;;;;;;;;;5072947;28;20953;-70
2022/01/07 14:20:19;;;;;;;8.23;5.13;;;;;;;;;;5072897;28;20456;-71
2022/01/07 14:22:46;;;;;;;5.10;2.80;;;;;;;;;;5073142;28;20826;-70
2022/01/07 14:25:16;;;;;;;5.60;3.30;;;;;;;;;;5072682;28;20468;-70
2022/01/07 14:27:44;;;;;;;6.43;3.07;;;;;;;;;;5072856;28;20447;-70
2022/01/07 14:30:13;;;;;;;5.70;4.00;;;;;;;;;;5072859;28;20463;-70
2022/01/07 14:32:41;;;;;;;4.10;3.70;;;;;;;;;;5072586;28;20444;-70
2022/01/07 14:35:09;;;;;;;7.13;4.40;;;;;;;;;;5072674;28;20816;-70
2022/01/07 14:37:38;;;;;;;8.03;3.80;;;;;;;;;;5072217;28;20451;-70
2022/01/07 14:40:06;;;;;;;7.10;4.23;;;;;;;;;;5073078;28;20819;-70
2022/01/07 14:42:33;;;;;;;7.43;5.63;;;;;;;;;;5072867;28;20459;-70
2022/01/07 14:45:00;;;;;;;9.60;5.50;;;;;;;;;;5072374;28;20492;-70
2022/01/07 14:47:28;;;;;;;9.10;6.13;;;;;;;;;;5072772;28;20455;-70
2022/01/07 14:49:56;;;;;;;6.83;4.60;;;;;;;;;;5072673;28;20470;-70
2022/01/07 14:52:25;;;;;;;5.60;4.53;;;;;;;;;;5072464;28;20455;-70